sensor_id;sensor_type;location;lat;lon;timestamp;pressure;altitude;pressure_sealevel;temperature;humidity
48774;BME280;34576;0.000;0.000;2023-01-31T00:03:28;97673.84;;;16.29;65.12
48774;BME280;34576;0.000;0.000;2023-01-31T00:10:29;97667.81;;;16.34;64.67
48774;BME280;34576;0.000;0.000;2023-01-31T00:17:29;97649.31;;;16.39;63.89
48774;BME280;34576;0.000;0.000;2023-01-31T00:24:29;97651.38;;;16.37;63.52
48774;BME280;34576;0.000;0.000;2023-01-31T00:31:30;97649.31;;;16.39;62.84
48774;BME280;34576;0.000;0.000;2023-01-31T00:38:31;97644.00;;;16.39;62.90
48774;BME280;34576;0.000;0.000;2023-01-31T00:45:31;97637.22;;;16.48;63.88
48774;BME280;34576;0.000;0.000;2023-01-31T00:52:31;97638.84;;;16.49;64.01
48774;BME280;34576;0.000;0.000;2023-01-31T00:59:32;97635.59;;;16.47;63.71
48774;BME280;34576;0.000;0.000;2023-01-31T01:06:33;97633.03;;;16.52;63.37
48774;BME280;34576;0.000;0.000;2023-01-31T01:13:33;97626.13;;;16.51;63.91
48774;BME280;34576;0.000;0.000;2023-01-31T01:20:34;97629.00;;;16.50;64.09
48774;BME280;34576;0.000;0.000;2023-01-31T01:27:35;97631.75;;;16.55;64.56
48774;BME280;34576;0.000;0.000;2023-01-31T01:34:35;97639.16;;;16.53;64.53
48774;BME280;34576;0.000;0.000;2023-01-31T01:41:36;97638.69;;;16.56;64.53
48774;BME280;34576;0.000;0.000;2023-01-31T01:48:37;97623.56;;;16.56;64.75
48774;BME280;34576;0.000;0.000;2023-01-31T02:02:44;97619.28;;;16.55;64.32
48774;BME280;34576;0.000;0.000;2023-01-31T02:09:49;97642.69;;;16.59;64.49
48774;BME280;34576;0.000;0.000;2023-01-31T02:16:51;97628.38;;;16.60;64.34
48774;BME280;34576;0.000;0.000;2023-01-31T02:24:17;97625.97;;;16.58;63.51
48774;BME280;34576;0.000;0.000;2023-01-31T02:31:29;97638.34;;;16.52;63.87
48774;BME280;34576;0.000;0.000;2023-01-31T02:38:43;97621.94;;;16.55;63.72
48774;BME280;34576;0.000;0.000;2023-01-31T02:45:51;97617.59;;;16.66;62.44
48774;BME280;34576;0.000;0.000;2023-01-31T02:52:58;97625.88;;;16.53;63.79
48774;BME280;34576;0.000;0.000;2023-01-31T03:00:03;97649.78;;;16.53;63.13
48774;BME280;34576;0.000;0.000;2023-01-31T03:07:06;97654.53;;;16.51;62.86
48774;BME280;34576;0.000;0.000;2023-01-31T03:14:12;97654.78;;;16.49;62.99
48774;BME280;34576;0.000;0.000;2023-01-31T03:21:20;97653.25;;;16.53;63.28
48774;BME280;34576;0.000;0.000;2023-01-31T03:28:28;97653.31;;;16.59;63.07
48774;BME280;34576;0.000;0.000;2023-01-31T03:35:29;97647.53;;;16.62;63.53
48774;BME280;34576;0.000;0.000;2023-01-31T03:50:08;97661.94;;;16.66;63.16
48774;BME280;34576;0.000;0.000;2023-01-31T03:57:13;97655.50;;;16.62;63.12
48774;BME280;34576;0.000;0.000;2023-01-31T04:04:18;97640.63;;;16.61;62.83
48774;BME280;34576;0.000;0.000;2023-01-31T04:11:23;97637.38;;;16.59;63.04
48774;BME280;34576;0.000;0.000;2023-01-31T04:18:23;97627.34;;;16.61;63.09
48774;BME280;34576;0.000;0.000;2023-01-31T04:25:24;97627.88;;;16.63;63.16
48774;BME280;34576;0.000;0.000;2023-01-31T04:32:24;97644.78;;;16.56;62.79
48774;BME280;34576;0.000;0.000;2023-01-31T04:39:25;97663.47;;;16.62;62.96
48774;BME280;34576;0.000;0.000;2023-01-31T04:46:25;97671.91;;;16.59;62.91
48774;BME280;34576;0.000;0.000;2023-01-31T04:53:25;97670.06;;;16.59;63.29
48774;BME280;34576;0.000;0.000;2023-01-31T05:00:25;97669.25;;;16.59;63.81
48774;BME280;34576;0.000;0.000;2023-01-31T05:07:26;97672.97;;;16.58;64.28
48774;BME280;34576;0.000;0.000;2023-01-31T05:14:26;97680.47;;;16.61;64.43
48774;BME280;34576;0.000;0.000;2023-01-31T05:21:27;97667.25;;;16.66;65.21
48774;BME280;34576;0.000;0.000;2023-01-31T05:28:27;97674.97;;;16.67;62.70
48774;BME280;34576;0.000;0.000;2023-01-31T05:35:27;97664.53;;;16.61;61.68
48774;BME280;34576;0.000;0.000;2023-01-31T05:42:28;97690.28;;;11.62;51.18
48774;BME280;34576;0.000;0.000;2023-01-31T05:49:28;97690.66;;;10.60;48.04
48774;BME280;34576;0.000;0.000;2023-01-31T05:56:32;97679.59;;;14.80;48.14
48774;BME280;34576;0.000;0.000;2023-01-31T06:03:33;97671.22;;;15.60;49.90
48774;BME280;34576;0.000;0.000;2023-01-31T06:10:33;97687.44;;;15.75;51.36
48774;BME280;34576;0.000;0.000;2023-01-31T06:17:34;97692.97;;;15.74;52.69
48774;BME280;34576;0.000;0.000;2023-01-31T06:24:34;97695.63;;;15.74;54.71
48774;BME280;34576;0.000;0.000;2023-01-31T06:31:34;97703.56;;;15.85;55.46
48774;BME280;34576;0.000;0.000;2023-01-31T06:38:35;97712.19;;;15.93;55.96
48774;BME280;34576;0.000;0.000;2023-01-31T06:45:35;97707.47;;;15.95;56.56
48774;BME280;34576;0.000;0.000;2023-01-31T06:52:37;97713.34;;;15.97;56.94
48774;BME280;34576;0.000;0.000;2023-01-31T06:59:37;97699.59;;;16.00;57.31
48774;BME280;34576;0.000;0.000;2023-01-31T07:06:37;97695.91;;;16.01;57.76
48774;BME280;34576;0.000;0.000;2023-01-31T07:13:38;97695.41;;;16.04;58.01
48774;BME280;34576;0.000;0.000;2023-01-31T07:20:38;97707.91;;;16.03;58.19
48774;BME280;34576;0.000;0.000;2023-01-31T07:27:39;97699.09;;;16.03;58.36
48774;BME280;34576;0.000;0.000;2023-01-31T07:34:39;97699.69;;;16.05;58.52
48774;BME280;34576;0.000;0.000;2023-01-31T07:41:40;97698.56;;;16.01;58.67
48774;BME280;34576;0.000;0.000;2023-01-31T07:48:41;97730.97;;;16.03;58.47
48774;BME280;34576;0.000;0.000;2023-01-31T07:55:41;97725.09;;;16.01;58.65
48774;BME280;34576;0.000;0.000;2023-01-31T08:02:46;97723.47;;;16.00;58.62
48774;BME280;34576;0.000;0.000;2023-01-31T08:10:04;97723.41;;;15.95;58.80
48774;BME280;34576;0.000;0.000;2023-01-31T08:17:05;97725.47;;;15.93;58.89
48774;BME280;34576;0.000;0.000;2023-01-31T08:24:07;97747.63;;;15.86;59.00
48774;BME280;34576;0.000;0.000;2023-01-31T08:31:10;97752.72;;;15.88;59.13
48774;BME280;34576;0.000;0.000;2023-01-31T08:38:11;97740.59;;;15.80;59.23
48774;BME280;34576;0.000;0.000;2023-01-31T08:45:12;97740.38;;;15.82;59.15
48774;BME280;34576;0.000;0.000;2023-01-31T08:52:12;97722.03;;;15.80;59.09
48774;BME280;34576;0.000;0.000;2023-01-31T08:59:13;97714.50;;;15.77;59.25
48774;BME280;34576;0.000;0.000;2023-01-31T09:06:14;97707.38;;;15.78;59.16
48774;BME280;34576;0.000;0.000;2023-01-31T09:13:15;97705.66;;;15.71;59.26
48774;BME280;34576;0.000;0.000;2023-01-31T09:20:15;97720.06;;;15.76;59.35
48774;BME280;34576;0.000;0.000;2023-01-31T09:27:15;97713.38;;;15.73;59.23
48774;BME280;34576;0.000;0.000;2023-01-31T09:34:16;97720.06;;;15.76;59.05
48774;BME280;34576;0.000;0.000;2023-01-31T09:48:27;97700.09;;;15.73;59.12
48774;BME280;34576;0.000;0.000;2023-01-31T09:55:36;97700.34;;;15.71;59.02
48774;BME280;34576;0.000;0.000;2023-01-31T10:09:52;97700.22;;;15.78;59.05
48774;BME280;34576;0.000;0.000;2023-01-31T10:23:56;97716.84;;;15.74;59.30
48774;BME280;34576;0.000;0.000;2023-01-31T10:31:09;97715.00;;;15.74;59.20
48774;BME280;34576;0.000;0.000;2023-01-31T10:38:18;97719.25;;;15.75;59.40
48774;BME280;34576;0.000;0.000;2023-01-31T10:45:21;97705.88;;;15.70;59.40
48774;BME280;34576;0.000;0.000;2023-01-31T10:59:42;97685.00;;;15.74;59.21
48774;BME280;34576;0.000;0.000;2023-01-31T11:06:43;97672.31;;;15.76;59.34
48774;BME280;34576;0.000;0.000;2023-01-31T11:14:03;97686.28;;;15.71;59.40
48774;BME280;34576;0.000;0.000;2023-01-31T11:21:03;97690.63;;;15.77;59.34
48774;BME280;34576;0.000;0.000;2023-01-31T11:28:15;97685.25;;;15.72;59.46
48774;BME280;34576;0.000;0.000;2023-01-31T11:42:17;97694.91;;;15.78;59.31
48774;BME280;34576;0.000;0.000;2023-01-31T11:49:39;97686.94;;;15.78;59.34
48774;BME280;34576;0.000;0.000;2023-01-31T11:56:40;97682.47;;;15.79;59.47
48774;BME280;34576;0.000;0.000;2023-01-31T12:03:45;97659.41;;;15.79;59.51
48774;BME280;34576;0.000;0.000;2023-01-31T12:10:47;97661.69;;;15.76;59.55
48774;BME280;34576;0.000;0.000;2023-01-31T12:17:49;97640.84;;;15.79;59.39
48774;BME280;34576;0.000;0.000;2023-01-31T12:32:28;97602.53;;;15.75;59.78
48774;BME280;34576;0.000;0.000;2023-01-31T12:39:30;97584.22;;;15.74;59.75
48774;BME280;34576;0.000;0.000;2023-01-31T12:53:50;97594.22;;;15.71;59.64
48774;BME280;34576;0.000;0.000;2023-01-31T13:08:14;97612.00;;;15.71;59.70
48774;BME280;34576;0.000;0.000;2023-01-31T13:15:30;97577.44;;;15.66;59.86
48774;BME280;34576;0.000;0.000;2023-01-31T13:22:38;97573.19;;;15.65;59.88
48774;BME280;34576;0.000;0.000;2023-01-31T13:29:50;97584.34;;;15.67;59.99
48774;BME280;34576;0.000;0.000;2023-01-31T13:37:01;97593.56;;;15.64;59.83
48774;BME280;34576;0.000;0.000;2023-01-31T13:44:04;97567.63;;;15.66;59.70
48774;BME280;34576;0.000;0.000;2023-01-31T13:51:10;97574.28;;;15.69;59.77
48774;BME280;34576;0.000;0.000;2023-01-31T13:58:29;97562.66;;;15.70;59.60
48774;BME280;34576;0.000;0.000;2023-01-31T14:12:40;97535.88;;;15.71;59.63
48774;BME280;34576;0.000;0.000;2023-01-31T14:33:45;97538.22;;;15.68;59.79
48774;BME280;34576;0.000;0.000;2023-01-31T15:16:26;97527.44;;;15.58;59.78
48774;BME280;34576;0.000;0.000;2023-01-31T15:23:28;97533.19;;;15.54;59.91
48774;BME280;34576;0.000;0.000;2023-01-31T15:30:31;97534.03;;;15.55;59.65
48774;BME280;34576;0.000;0.000;2023-01-31T15:52:15;97512.94;;;15.48;59.90
48774;BME280;34576;0.000;0.000;2023-01-31T15:59:15;97515.59;;;15.48;59.73
48774;BME280;34576;0.000;0.000;2023-01-31T16:06:25;97488.28;;;15.48;59.72
48774;BME280;34576;0.000;0.000;2023-01-31T16:13:26;97492.22;;;15.45;59.64
48774;BME280;34576;0.000;0.000;2023-01-31T16:27:42;97512.28;;;15.41;59.65
48774;BME280;34576;0.000;0.000;2023-01-31T16:34:44;97515.25;;;15.45;59.42
48774;BME280;34576;0.000;0.000;2023-01-31T16:41:50;97540.41;;;15.42;59.33
48774;BME280;34576;0.000;0.000;2023-01-31T16:49:02;97547.31;;;15.43;59.25
48774;BME280;34576;0.000;0.000;2023-01-31T16:56:14;97560.00;;;15.41;59.45
48774;BME280;34576;0.000;0.000;2023-01-31T17:03:18;97583.31;;;15.39;59.39
48774;BME280;34576;0.000;0.000;2023-01-31T17:10:22;97622.50;;;15.37;59.21
48774;BME280;34576;0.000;0.000;2023-01-31T17:17:26;97616.41;;;15.36;59.41
48774;BME280;34576;0.000;0.000;2023-01-31T17:24:27;97610.03;;;15.38;59.29
48774;BME280;34576;0.000;0.000;2023-01-31T17:31:27;97619.53;;;15.33;59.44
48774;BME280;34576;0.000;0.000;2023-01-31T17:38:28;97599.53;;;15.43;58.53
48774;BME280;34576;0.000;0.000;2023-01-31T17:45:29;97607.94;;;15.51;57.69
48774;BME280;34576;0.000;0.000;2023-01-31T17:52:29;97589.94;;;15.53;57.75
48774;BME280;34576;0.000;0.000;2023-01-31T17:59:29;97580.38;;;15.52;57.49
48774;BME280;34576;0.000;0.000;2023-01-31T18:06:29;97609.53;;;15.52;56.69
48774;BME280;34576;0.000;0.000;2023-01-31T18:13:30;97601.59;;;15.52;56.17
48774;BME280;34576;0.000;0.000;2023-01-31T18:20:30;97610.81;;;15.50;55.65
48774;BME280;34576;0.000;0.000;2023-01-31T18:27:31;97617.75;;;15.51;55.11
48774;BME280;34576;0.000;0.000;2023-01-31T18:34:31;97623.28;;;15.49;54.61
48774;BME280;34576;0.000;0.000;2023-01-31T18:41:32;97631.00;;;15.51;54.64
48774;BME280;34576;0.000;0.000;2023-01-31T18:48:32;97611.59;;;15.50;54.38
48774;BME280;34576;0.000;0.000;2023-01-31T18:55:33;97604.38;;;15.46;55.28
48774;BME280;34576;0.000;0.000;2023-01-31T19:02:33;97609.84;;;15.39;55.86
48774;BME280;34576;0.000;0.000;2023-01-31T19:09:33;97629.91;;;15.35;56.08
48774;BME280;34576;0.000;0.000;2023-01-31T19:16:35;97628.28;;;15.34;56.50
48774;BME280;34576;0.000;0.000;2023-01-31T19:23:36;97625.84;;;15.32;56.80
48774;BME280;34576;0.000;0.000;2023-01-31T19:30:36;97601.75;;;15.34;56.87
48774;BME280;34576;0.000;0.000;2023-01-31T19:37:38;97588.75;;;15.32;57.08
48774;BME280;34576;0.000;0.000;2023-01-31T19:44:38;97584.66;;;15.53;58.27
48774;BME280;34576;0.000;0.000;2023-01-31T19:51:38;97579.41;;;15.59;58.41
48774;BME280;34576;0.000;0.000;2023-01-31T19:58:40;97571.47;;;15.59;58.32
48774;BME280;34576;0.000;0.000;2023-01-31T20:05:41;97579.41;;;15.59;59.15
48774;BME280;34576;0.000;0.000;2023-01-31T20:12:41;97602.75;;;15.45;60.53
48774;BME280;34576;0.000;0.000;2023-01-31T20:19:41;97594.91;;;15.50;60.10
48774;BME280;34576;0.000;0.000;2023-01-31T20:26:43;97587.97;;;15.61;59.93
48774;BME280;34576;0.000;0.000;2023-01-31T20:33:44;97579.59;;;15.69;60.17
48774;BME280;34576;0.000;0.000;2023-01-31T20:40:48;97572.03;;;15.90;60.58
48774;BME280;34576;0.000;0.000;2023-01-31T20:47:49;97569.28;;;15.84;61.14
48774;BME280;34576;0.000;0.000;2023-01-31T20:54:49;97564.09;;;15.90;61.63
48774;BME280;34576;0.000;0.000;2023-01-31T21:01:51;97569.16;;;15.91;62.21
48774;BME280;34576;0.000;0.000;2023-01-31T21:08:51;97562.88;;;15.97;63.25
48774;BME280;34576;0.000;0.000;2023-01-31T21:15:52;97568.50;;;16.01;63.82
48774;BME280;34576;0.000;0.000;2023-01-31T21:22:52;97560.06;;;16.04;65.12
48774;BME280;34576;0.000;0.000;2023-01-31T21:29:53;97572.94;;;16.29;56.74
48774;BME280;34576;0.000;0.000;2023-01-31T21:36:57;97561.03;;;16.15;63.14
48774;BME280;34576;0.000;0.000;2023-01-31T21:43:57;97557.09;;;16.17;63.56
48774;BME280;34576;0.000;0.000;2023-01-31T21:51:01;97562.41;;;16.17;63.38
48774;BME280;34576;0.000;0.000;2023-01-31T21:58:01;97554.91;;;16.14;63.59
48774;BME280;34576;0.000;0.000;2023-01-31T22:05:02;97536.09;;;16.16;63.60
48774;BME280;34576;0.000;0.000;2023-01-31T22:12:02;97535.84;;;16.17;64.17
48774;BME280;34576;0.000;0.000;2023-01-31T22:19:03;97538.75;;;16.16;64.22
48774;BME280;34576;0.000;0.000;2023-01-31T22:33:04;97521.88;;;16.22;64.57
48774;BME280;34576;0.000;0.000;2023-01-31T22:40:04;97505.94;;;16.22;64.61
48774;BME280;34576;0.000;0.000;2023-01-31T22:47:05;97486.28;;;16.23;64.91
48774;BME280;34576;0.000;0.000;2023-01-31T22:54:05;97480.28;;;16.28;65.09
48774;BME280;34576;0.000;0.000;2023-01-31T23:01:09;97476.09;;;16.32;65.04
48774;BME280;34576;0.000;0.000;2023-01-31T23:08:10;97481.84;;;16.29;65.02
48774;BME280;34576;0.000;0.000;2023-01-31T23:15:11;97495.75;;;16.36;65.08
48774;BME280;34576;0.000;0.000;2023-01-31T23:22:12;97492.03;;;16.54;63.68
48774;BME280;34576;0.000;0.000;2023-01-31T23:29:13;97496.84;;;16.35;64.75
48774;BME280;34576;0.000;0.000;2023-01-31T23:36:13;97497.78;;;16.29;65.16
48774;BME280;34576;0.000;0.000;2023-01-31T23:43:13;97484.06;;;16.32;65.00
48774;BME280;34576;0.000;0.000;2023-01-31T23:50:13;97488.66;;;16.42;64.97
48774;BME280;34576;0.000;0.000;2023-01-31T23:57:14;97494.16;;;16.52;64.27
